createdAt,value
2019-01-27T00:00:55.239Z,94311.81
2019-01-27T00:01:58.905Z,94314.03
2019-01-27T00:03:02.496Z,94310.30
2019-01-27T00:04:06.463Z,94310.30
2019-01-27T00:05:10.029Z,94304.00
2019-01-27T00:06:13.643Z,94307.33
2019-01-27T00:07:17.133Z,94300.45
2019-01-27T00:08:20.680Z,94299.52
2019-01-27T00:09:24.155Z,94297.13
2019-01-27T00:10:27.663Z,94294.31
2019-01-27T00:11:31.229Z,94295.41
2019-01-27T00:12:34.747Z,94291.51
2019-01-27T00:13:38.337Z,94293.36
2019-01-27T00:14:41.913Z,94286.47
2019-01-27T00:15:45.411Z,94291.13
2019-01-27T00:16:48.900Z,94284.59
2019-01-27T00:17:52.397Z,94275.86
2019-01-27T00:18:55.910Z,94280.52
2019-01-27T00:19:59.474Z,94270.88
2019-01-27T00:21:02.990Z,94278.88
2019-01-27T00:22:06.540Z,94276.45
2019-01-27T00:23:09.965Z,94270.87
2019-01-27T00:24:13.489Z,94271.79
2019-01-27T00:25:17.468Z,94261.73
2019-01-27T00:26:21.186Z,94257.48
2019-01-27T00:27:24.846Z,94258.41
2019-01-27T00:28:28.426Z,94257.28
2019-01-27T00:29:32.014Z,94258.95
2019-01-27T00:30:35.485Z,94251.32
2019-01-27T00:31:38.991Z,94244.61
2019-01-27T00:32:42.505Z,94243.65
2019-01-27T00:33:46.135Z,94238.83
2019-01-27T00:34:49.589Z,94240.50
2019-01-27T00:35:53.165Z,94237.36
2019-01-27T00:36:56.708Z,94235.10
2019-01-27T00:38:00.176Z,94234.72
2019-01-27T00:39:05.193Z,94230.61
2019-01-27T00:40:11.134Z,94229.81
2019-01-27T00:41:14.816Z,94225.95
2019-01-27T00:42:18.288Z,94225.91
2019-01-27T00:43:21.836Z,94228.58
2019-01-27T00:44:25.420Z,94224.89
2019-01-27T00:45:28.964Z,94223.94
2019-01-27T00:46:32.578Z,94223.65
2019-01-27T00:47:36.008Z,94215.16
2019-01-27T00:48:39.502Z,94217.75
2019-01-27T00:49:43.072Z,94211.69
2019-01-27T00:50:46.565Z,94216.44
2019-01-27T00:51:50.128Z,94216.67
2019-01-27T00:52:53.636Z,94215.41
2019-01-27T00:53:57.098Z,94205.95
2019-01-27T00:55:00.607Z,94210.98
2019-01-27T00:56:04.230Z,94210.98
2019-01-27T00:57:07.689Z,94210.06
2019-01-27T00:58:11.253Z,94209.52
2019-01-27T00:59:14.767Z,94211.95
2019-01-27T01:00:21.379Z,94204.70
2019-01-27T01:01:25.106Z,94206.16
2019-01-27T01:02:28.662Z,94205.41
2019-01-27T01:03:32.176Z,94207.84
2019-01-27T01:04:35.709Z,94201.30
2019-01-27T01:05:39.283Z,94203.85
2019-01-27T01:06:43.044Z,94198.87
2019-01-27T01:07:47.030Z,94201.25
2019-01-27T01:08:50.538Z,94198.66
2019-01-27T01:09:54.112Z,94205.58
2019-01-27T01:10:57.629Z,94197.61
2019-01-27T01:12:01.225Z,94197.28
2019-01-27T01:13:05.423Z,94203.98
2019-01-27T01:14:08.985Z,94200.26
2019-01-27T01:15:12.935Z,94200.84
2019-01-27T01:16:16.488Z,94195.27
2019-01-27T01:17:20.072Z,94196.60
2019-01-27T01:18:23.706Z,94197.16
2019-01-27T01:19:27.355Z,94198.83
2019-01-27T01:20:30.918Z,94198.28
2019-01-27T01:21:34.567Z,94199.95
2019-01-27T01:22:38.145Z,94192.30
2019-01-27T01:23:41.749Z,94191.00
2019-01-27T01:24:45.204Z,94192.70
2019-01-27T01:25:48.768Z,94190.86
2019-01-27T01:26:52.211Z,94192.70
2019-01-27T01:27:55.805Z,94185.69
2019-01-27T01:28:59.376Z,94185.49
2019-01-27T01:30:03.050Z,94191.82
2019-01-27T01:31:06.597Z,94182.55
2019-01-27T01:32:10.093Z,94184.02
2019-01-27T01:33:13.548Z,94174.34
2019-01-27T01:34:16.983Z,94183.98
2019-01-27T01:35:20.516Z,94178.06
2019-01-27T01:36:24.116Z,94181.80
2019-01-27T01:37:27.674Z,94176.19
2019-01-27T01:38:31.207Z,94170.27
2019-01-27T01:39:34.623Z,94175.26
2019-01-27T01:40:38.055Z,94170.78
2019-01-27T01:41:41.560Z,94172.45
2019-01-27T01:42:45.155Z,94164.66
2019-01-27T01:43:48.645Z,94169.86
2019-01-27T01:44:52.152Z,94165.75
2019-01-27T01:45:55.645Z,94164.25
2019-01-27T01:46:59.207Z,94160.01
2019-01-27T01:48:03.250Z,94155.73
2019-01-27T01:49:06.755Z,94149.78
2019-01-27T01:50:10.341Z,94155.52
2019-01-27T01:51:13.772Z,94151.08
2019-01-27T01:52:17.300Z,94147.94
2019-01-27T01:53:20.735Z,94143.66
2019-01-27T01:54:24.251Z,94143.31
2019-01-27T01:55:27.842Z,94144.03
2019-01-27T01:56:31.337Z,94140.72
2019-01-27T01:57:34.781Z,94143.48
2019-01-27T01:58:38.216Z,94141.41
2019-01-27T01:59:41.661Z,94143.08
2019-01-27T02:00:45.183Z,94142.33
2019-01-27T02:01:48.754Z,94135.80
2019-01-27T02:02:52.372Z,94137.51
2019-01-27T02:03:55.891Z,94134.36
2019-01-27T02:04:59.470Z,94134.73
2019-01-27T02:06:03.039Z,94126.73
2019-01-27T02:07:06.598Z,94133.44
2019-01-27T02:08:10.097Z,94123.03
2019-01-27T02:09:13.646Z,94120.44
2019-01-27T02:10:19.398Z,94118.66
2019-01-27T02:11:23.028Z,94116.81
2019-01-27T02:12:26.567Z,94116.27
2019-01-27T02:13:30.118Z,94118.11
2019-01-27T02:14:33.634Z,94114.72
2019-01-27T02:15:43.089Z,94108.06
2019-01-27T02:16:46.521Z,94116.23
2019-01-27T02:17:50.087Z,94113.12
2019-01-27T02:18:53.729Z,94107.76
2019-01-27T02:19:57.188Z,94108.71
2019-01-27T02:21:00.745Z,94104.81
2019-01-27T02:22:04.436Z,94105.36
2019-01-27T02:23:07.878Z,94105.50
2019-01-27T02:24:11.382Z,94101.05
2019-01-27T02:25:14.897Z,94097.53
2019-01-27T02:26:18.350Z,94095.86
2019-01-27T02:27:21.844Z,94093.64
2019-01-27T02:28:25.421Z,94092.17
2019-01-27T02:29:29.047Z,94092.92
2019-01-27T02:30:32.539Z,94083.24
2019-01-27T02:31:36.128Z,94087.55
2019-01-27T02:32:39.811Z,94081.97
2019-01-27T02:33:43.343Z,94070.08
2019-01-27T02:34:46.820Z,94067.69
2019-01-27T02:35:50.409Z,94074.18
2019-01-27T02:36:53.953Z,94072.13
2019-01-27T02:37:57.371Z,94073.05
2019-01-27T02:39:00.795Z,94074.36
2019-01-27T02:40:06.874Z,94068.23
2019-01-27T02:41:10.390Z,94062.66
2019-01-27T02:42:13.821Z,94061.36
2019-01-27T02:43:17.486Z,94059.31
2019-01-27T02:44:20.916Z,94061.02
2019-01-27T02:45:24.421Z,94056.36
2019-01-27T02:46:28.393Z,94055.64
2019-01-27T02:47:31.825Z,94029.23
2019-01-27T02:48:35.415Z,94061.04
2019-01-27T02:49:38.984Z,94052.88
2019-01-27T02:50:42.491Z,94055.84
2019-01-27T02:51:45.949Z,94049.89
2019-01-27T02:52:49.493Z,94056.19
2019-01-27T02:53:52.929Z,94048.20
2019-01-27T02:54:56.445Z,94054.69
2019-01-27T02:56:00.018Z,94041.50
2019-01-27T02:57:03.535Z,94045.77
2019-01-27T02:58:07.087Z,94041.90
2019-01-27T02:59:10.604Z,94040.95
2019-01-27T03:00:19.554Z,94037.42
2019-01-27T03:01:23.041Z,94039.85
2019-01-27T03:02:26.586Z,94037.62
2019-01-27T03:03:30.129Z,94025.94
2019-01-27T03:04:33.576Z,94028.70
2019-01-27T03:05:56.889Z,94019.43
2019-01-27T03:07:02.234Z,94023.13
2019-01-27T03:08:06.492Z,94016.27
2019-01-27T03:09:11.333Z,94011.63
2019-01-27T03:10:16.641Z,94007.99
2019-01-27T03:11:20.220Z,94013.77
2019-01-27T03:12:23.748Z,94012.27
2019-01-27T03:13:27.252Z,94015.75
2019-01-27T03:14:30.747Z,94009.09
2019-01-27T03:15:34.240Z,94011.23
2019-01-27T03:16:37.677Z,94004.58
2019-01-27T03:17:41.218Z,94003.61
2019-01-27T03:18:44.719Z,94006.25
2019-01-27T03:19:48.214Z,94004.57
2019-01-27T03:20:51.757Z,94002.73
2019-01-27T03:21:55.248Z,94004.75
2019-01-27T03:22:58.775Z,93992.52
2019-01-27T03:24:02.306Z,93993.27
2019-01-27T03:25:08.767Z,93991.97
2019-01-27T03:26:12.270Z,93987.87
2019-01-27T03:27:15.710Z,93986.91
2019-01-27T03:28:19.237Z,93992.11
2019-01-27T03:29:22.729Z,93978.20
2019-01-27T03:30:26.157Z,93981.79
2019-01-27T03:31:29.580Z,93974.52
2019-01-27T03:32:33.075Z,93970.11
2019-01-27T03:33:36.695Z,93970.45
2019-01-27T03:34:40.227Z,93966.80
2019-01-27T03:35:43.752Z,93965.30
2019-01-27T03:36:47.354Z,93969.77
2019-01-27T03:37:50.823Z,93967.92
2019-01-27T03:38:54.279Z,93964.57
2019-01-27T03:39:57.720Z,93963.48
2019-01-27T03:41:01.231Z,93960.70
2019-01-27T03:42:05.293Z,93953.48
2019-01-27T03:43:08.879Z,93954.77
2019-01-27T03:44:12.325Z,93954.02
2019-01-27T03:45:20.003Z,93953.47
2019-01-27T03:46:23.499Z,93950.48
2019-01-27T03:47:27.002Z,93946.97
2019-01-27T03:48:30.566Z,93943.08
2019-01-27T03:49:34.026Z,93912.40
2019-01-27T03:50:37.570Z,93940.48
2019-01-27T03:51:41.136Z,93934.36
2019-01-27T03:52:44.707Z,93938.09
2019-01-27T03:53:48.155Z,93931.42
2019-01-27T03:54:51.607Z,93932.55
2019-01-27T03:55:55.118Z,93929.59
2019-01-27T03:56:58.564Z,93922.52
2019-01-27T03:58:02.026Z,93925.49
2019-01-27T03:59:05.583Z,93923.65
2019-01-27T04:00:12.096Z,93921.03
2019-01-27T04:01:15.532Z,93918.25
2019-01-27T04:02:18.957Z,93916.23
2019-01-27T04:03:22.395Z,93911.20
2019-01-27T04:04:25.827Z,93900.80
2019-01-27T04:05:29.339Z,93904.66
2019-01-27T04:06:32.757Z,93892.98
2019-01-27T04:07:36.185Z,93889.04
2019-01-27T04:08:39.670Z,93891.44
2019-01-27T04:09:43.093Z,93887.52
2019-01-27T04:10:46.551Z,93893.59
2019-01-27T04:11:49.976Z,93892.67
2019-01-27T04:12:53.504Z,93893.55
2019-01-27T04:13:56.985Z,93887.31
2019-01-27T04:15:00.406Z,93896.05
2019-01-27T04:16:03.992Z,93886.63
2019-01-27T04:17:07.560Z,93887.72
2019-01-27T04:18:10.980Z,93883.83
2019-01-27T04:19:14.401Z,93893.28
2019-01-27T04:20:21.961Z,93884.38
2019-01-27T04:21:25.472Z,93885.84
2019-01-27T04:22:28.900Z,93883.10
2019-01-27T04:23:32.330Z,93876.59
2019-01-27T04:24:35.771Z,93880.13
2019-01-27T04:25:40.990Z,93880.36
2019-01-27T04:26:44.441Z,93875.52
2019-01-27T04:27:48.034Z,93877.73
2019-01-27T04:28:51.528Z,93873.66
2019-01-27T04:29:54.954Z,93876.23
2019-01-27T04:30:58.381Z,93867.73
2019-01-27T04:32:01.849Z,93868.27
2019-01-27T04:33:05.545Z,93866.75
2019-01-27T04:34:09.101Z,93867.48
2019-01-27T04:35:13.097Z,93869.35
2019-01-27T04:36:16.587Z,93867.30
2019-01-27T04:37:20.105Z,93874.30
2019-01-27T04:38:23.538Z,93871.81
2019-01-27T04:39:27.040Z,93863.16
2019-01-27T04:40:30.612Z,93858.37
2019-01-27T04:41:34.115Z,93862.66
2019-01-27T04:42:37.600Z,93860.47
2019-01-27T04:43:41.164Z,93863.44
2019-01-27T04:44:44.599Z,93861.39
2019-01-27T04:45:48.095Z,93856.00
2019-01-27T04:46:51.531Z,93864.19
2019-01-27T04:47:54.969Z,93843.45
2019-01-27T04:48:58.400Z,93848.45
2019-01-27T04:50:01.837Z,93846.95
2019-01-27T04:51:05.520Z,93845.67
2019-01-27T04:52:09.007Z,93841.39
2019-01-27T04:53:12.513Z,93848.27
2019-01-27T04:54:16.008Z,93849.97
2019-01-27T04:55:20.375Z,93841.98
2019-01-27T04:56:23.805Z,93837.70
2019-01-27T04:57:27.327Z,93838.25
2019-01-27T04:58:30.847Z,93838.43
2019-01-27T04:59:34.273Z,93835.30
2019-01-27T05:00:37.777Z,93832.86
2019-01-27T05:01:41.374Z,93833.05
2019-01-27T05:02:46.600Z,93829.33
2019-01-27T05:03:51.745Z,93829.11
2019-01-27T05:04:55.172Z,93830.43
2019-01-27T05:05:58.674Z,93828.41
2019-01-27T05:07:02.201Z,93828.78
2019-01-27T05:08:05.934Z,93825.06
2019-01-27T05:09:09.886Z,93822.48
2019-01-27T05:10:14.457Z,93824.90
2019-01-27T05:11:17.957Z,93828.80
2019-01-27T05:12:21.380Z,93824.70
2019-01-27T05:13:24.897Z,93824.51
2019-01-27T05:14:28.332Z,93824.16
2019-01-27T05:15:32.998Z,93821.55
2019-01-27T05:16:36.567Z,93826.95
2019-01-27T05:17:40.078Z,93824.34
2019-01-27T05:18:43.595Z,93820.63
2019-01-27T05:19:47.156Z,93821.75
2019-01-27T05:20:50.665Z,93814.15
2019-01-27T05:21:54.169Z,93817.48
2019-01-27T05:22:57.664Z,93811.36
2019-01-27T05:24:01.118Z,93809.70
2019-01-27T05:25:07.937Z,93805.61
2019-01-27T05:26:11.368Z,93802.47
2019-01-27T05:27:14.807Z,93808.77
2019-01-27T05:28:18.313Z,93808.02
2019-01-27T05:29:21.805Z,93803.94
2019-01-27T05:30:26.370Z,93805.81
2019-01-27T05:31:29.796Z,93801.34
2019-01-27T05:32:33.221Z,93808.40
2019-01-27T05:33:36.682Z,93815.62
2019-01-27T05:34:40.156Z,93808.92
2019-01-27T05:35:43.597Z,93813.03
2019-01-27T05:36:47.219Z,93814.89
2019-01-27T05:37:50.792Z,93814.14
2019-01-27T05:38:54.257Z,93809.52
2019-01-27T05:39:57.733Z,93808.78
2019-01-27T05:41:01.169Z,93805.09
2019-01-27T05:42:04.731Z,93802.30
2019-01-27T05:43:08.187Z,93801.93
2019-01-27T05:44:11.614Z,93798.61
2019-01-27T05:45:16.582Z,93796.55
2019-01-27T05:46:20.150Z,93793.20
2019-01-27T05:47:23.573Z,93788.21
2019-01-27T05:48:27.003Z,93792.09
2019-01-27T05:49:30.521Z,93790.25
2019-01-27T05:50:34.012Z,93785.23
2019-01-27T05:51:37.440Z,93783.38
2019-01-27T05:52:41.014Z,93777.06
2019-01-27T05:53:44.525Z,93780.05
2019-01-27T05:54:47.975Z,93779.67
2019-01-27T05:55:51.392Z,93778.94
2019-01-27T05:56:56.683Z,93774.84
2019-01-27T05:57:59.965Z,93776.31
2019-01-27T05:59:03.514Z,93774.65
2019-01-27T06:00:10.063Z,93765.92
2019-01-27T06:01:13.593Z,93772.58
2019-01-27T06:02:17.079Z,93772.58
2019-01-27T06:03:20.573Z,93775.73
2019-01-27T06:04:24.040Z,93776.10
2019-01-27T06:05:27.540Z,93778.70
2019-01-27T06:06:30.962Z,93774.59
2019-01-27T06:07:34.464Z,93774.05
2019-01-27T06:08:37.898Z,93777.57
2019-01-27T06:09:41.343Z,93770.34
2019-01-27T06:10:44.872Z,93769.56
2019-01-27T06:11:48.289Z,93764.20
2019-01-27T06:12:51.788Z,93765.50
2019-01-27T06:13:55.221Z,93763.08
2019-01-27T06:14:58.661Z,93755.27
2019-01-27T06:16:02.177Z,93755.11
2019-01-27T06:17:05.729Z,93749.17
2019-01-27T06:18:09.214Z,93746.21
2019-01-27T06:19:12.647Z,93749.05
2019-01-27T06:20:17.243Z,93750.70
2019-01-27T06:21:20.682Z,93745.88
2019-01-27T06:22:24.113Z,93749.39
2019-01-27T06:23:27.585Z,93748.28
2019-01-27T06:24:31.032Z,93746.81
2019-01-27T06:25:34.613Z,93742.00
2019-01-27T06:26:38.091Z,93738.48
2019-01-27T06:27:41.486Z,93740.88
2019-01-27T06:28:44.987Z,93735.33
2019-01-27T06:29:48.524Z,93740.34
2019-01-27T06:30:51.990Z,93737.73
2019-01-27T06:31:55.443Z,93736.08
2019-01-27T06:33:00.577Z,93734.23
2019-01-27T06:34:04.316Z,93729.02
2019-01-27T06:35:07.881Z,93736.63
2019-01-27T06:36:11.334Z,93734.77
2019-01-27T06:37:14.764Z,93736.26
2019-01-27T06:38:18.189Z,93732.00
2019-01-27T06:39:21.652Z,93736.63
2019-01-27T06:40:25.115Z,93735.33
2019-01-27T06:41:28.627Z,93729.57
2019-01-27T06:42:32.071Z,93723.09
2019-01-27T06:43:35.496Z,93732.91
2019-01-27T06:44:38.988Z,93727.17
2019-01-27T06:45:42.500Z,93725.14
2019-01-27T06:46:45.957Z,93730.69
2019-01-27T06:47:49.397Z,93721.98
2019-01-27T06:48:52.837Z,93716.22
2019-01-27T06:49:56.339Z,93722.36
2019-01-27T06:50:59.766Z,93714.58
2019-01-27T06:52:03.291Z,93713.08
2019-01-27T06:53:06.965Z,93713.63
2019-01-27T06:54:10.532Z,93714.39
2019-01-27T06:55:21.292Z,93708.42
2019-01-27T06:56:24.724Z,93705.84
2019-01-27T06:57:28.166Z,93711.58
2019-01-27T06:58:33.256Z,93706.38
2019-01-27T06:59:38.323Z,93708.80
2019-01-27T07:00:43.462Z,93706.05
2019-01-27T07:01:48.594Z,93706.41
2019-01-27T07:02:53.685Z,93708.80
2019-01-27T07:04:01.582Z,93713.80
2019-01-27T07:05:09.593Z,93702.09
2019-01-27T07:06:20.648Z,93698.55
2019-01-27T07:07:37.462Z,93700.25
2019-01-27T07:08:44.996Z,93697.65
2019-01-27T07:09:50.122Z,93695.80
2019-01-27T07:11:11.120Z,93695.82
2019-01-27T07:12:22.055Z,93695.42
2019-01-27T07:13:30.046Z,93691.52
2019-01-27T07:14:47.044Z,93687.58
2019-01-27T07:15:54.728Z,93682.57
2019-01-27T07:17:02.599Z,93680.89
2019-01-27T07:18:19.221Z,93672.94
2019-01-27T07:19:36.203Z,93675.16
2019-01-27T07:20:53.055Z,93680.36
2019-01-27T07:21:58.223Z,93679.82
2019-01-27T07:23:03.285Z,93669.81
2019-01-27T07:24:11.301Z,93672.41
2019-01-27T07:25:19.235Z,93668.89
2019-01-27T07:26:42.274Z,93666.28
2019-01-27T07:27:50.276Z,93657.91
2019-01-27T07:28:58.141Z,93659.37
2019-01-27T07:30:09.010Z,93654.73
2019-01-27T07:31:28.778Z,93650.66
2019-01-27T07:32:45.830Z,93649.20
2019-01-27T07:34:02.488Z,93640.80
2019-01-27T07:35:13.530Z,93642.66
2019-01-27T07:36:21.268Z,93642.30
2019-01-27T07:37:32.000Z,93643.05
2019-01-27T07:38:37.061Z,93643.84
2019-01-27T07:39:42.188Z,93643.11
2019-01-27T07:40:55.813Z,93642.53
2019-01-27T07:42:00.964Z,93638.27
2019-01-27T07:43:17.827Z,93642.91
2019-01-27T07:44:25.508Z,93637.14
2019-01-27T07:45:30.764Z,93639.56
2019-01-27T07:46:35.890Z,93631.38
2019-01-27T07:47:50.049Z,93629.33
2019-01-27T07:49:04.064Z,93626.95
2019-01-27T07:50:12.042Z,93631.22
2019-01-27T07:51:17.125Z,93631.61
2019-01-27T07:52:25.077Z,93628.63
2019-01-27T07:53:38.916Z,93633.80
2019-01-27T07:54:53.126Z,93626.02
2019-01-27T07:56:01.028Z,93624.73
2019-01-27T07:57:06.441Z,93623.22
2019-01-27T07:58:11.511Z,93613.77
2019-01-27T07:59:16.580Z,93617.28
2019-01-27T08:00:37.364Z,93619.30
2019-01-27T08:01:51.328Z,93613.36
2019-01-27T08:03:11.798Z,93614.44
2019-01-27T08:04:20.668Z,93614.05
2019-01-27T08:05:40.473Z,93611.45
2019-01-27T08:07:00.384Z,93616.81
2019-01-27T08:08:05.448Z,93605.52
2019-01-27T08:09:13.955Z,93607.91
2019-01-27T08:10:33.848Z,93604.43
2019-01-27T08:11:44.920Z,93607.80
2019-01-27T08:12:52.485Z,93607.83
2019-01-27T08:14:06.561Z,93617.30
2019-01-27T08:15:30.639Z,93613.77
2019-01-27T08:16:38.445Z,93618.44
2019-01-27T08:17:43.584Z,93616.17
2019-01-27T08:18:48.790Z,93611.86
2019-01-27T08:20:02.497Z,93612.23
2019-01-27T08:21:10.355Z,93602.19
2019-01-27T08:22:17.859Z,93614.44
2019-01-27T08:23:22.938Z,93604.80
2019-01-27T08:24:43.983Z,93606.84
2019-01-27T08:26:00.883Z,93606.28
2019-01-27T08:27:06.195Z,93606.97
2019-01-27T08:28:14.073Z,93612.89
2019-01-27T08:29:24.822Z,93612.70
2019-01-27T08:30:29.969Z,93607.11
2019-01-27T08:31:35.097Z,93612.86
2019-01-27T08:32:52.025Z,93613.22
2019-01-27T08:34:03.100Z,93614.69
2019-01-27T08:35:12.899Z,93601.69
2019-01-27T08:36:20.403Z,93607.95
2019-01-27T08:37:25.618Z,93612.21
2019-01-27T08:38:30.793Z,93605.70
2019-01-27T08:39:38.665Z,93593.81
2019-01-27T08:41:01.943Z,93591.41
2019-01-27T08:42:12.985Z,93598.45
2019-01-27T08:43:33.882Z,93604.92
2019-01-27T08:44:45.064Z,93601.74
2019-01-27T08:45:55.840Z,93598.98
2019-01-27T08:46:59.339Z,93591.77
2019-01-27T08:48:02.898Z,93588.97
2019-01-27T08:49:06.420Z,93587.83
2019-01-27T08:50:12.884Z,93588.22
2019-01-27T08:51:16.403Z,93584.84
2019-01-27T08:52:19.968Z,93586.30
2019-01-27T08:53:23.494Z,93586.33
2019-01-27T08:54:26.997Z,93583.49
2019-01-27T08:55:30.506Z,93585.70
2019-01-27T08:56:33.982Z,93586.80
2019-01-27T08:57:37.473Z,93588.81
2019-01-27T08:58:41.012Z,93587.00
2019-01-27T08:59:44.510Z,93580.70
2019-01-27T09:00:49.904Z,93586.47
2019-01-27T09:01:55.016Z,93580.73
2019-01-27T09:03:06.026Z,93578.52
2019-01-27T09:04:11.200Z,93589.53
2019-01-27T09:05:16.540Z,93586.38
2019-01-27T09:06:24.587Z,93578.09
2019-01-27T09:07:29.760Z,93582.19
2019-01-27T09:08:40.687Z,93583.67
2019-01-27T09:09:48.455Z,93573.09
2019-01-27T09:10:59.173Z,93573.80
2019-01-27T09:12:19.096Z,93571.73
2019-01-27T09:13:27.092Z,93571.89
2019-01-27T09:14:32.179Z,93567.77
2019-01-27T09:15:43.137Z,93564.45
2019-01-27T09:16:48.199Z,93559.61
2019-01-27T09:18:02.143Z,93561.04
2019-01-27T09:19:12.629Z,93558.01
2019-01-27T09:20:20.564Z,93567.27
2019-01-27T09:21:43.436Z,93554.22
2019-01-27T09:23:04.705Z,93556.03
2019-01-27T09:24:25.513Z,93551.22
2019-01-27T09:25:33.561Z,93558.63
2019-01-27T09:26:38.820Z,93552.45
2019-01-27T09:27:52.979Z,93554.46
2019-01-27T09:28:58.150Z,93554.70
2019-01-27T09:30:06.257Z,93544.62
2019-01-27T09:31:11.463Z,93548.31
2019-01-27T09:32:16.523Z,93538.83
2019-01-27T09:33:27.301Z,93540.98
2019-01-27T09:34:35.078Z,93545.24
2019-01-27T09:35:55.990Z,93544.38
2019-01-27T09:37:01.138Z,93547.33
2019-01-27T09:38:22.218Z,93545.04
2019-01-27T09:39:30.001Z,93543.39
2019-01-27T09:40:40.762Z,93538.78
2019-01-27T09:41:54.595Z,93537.63
2019-01-27T09:42:59.759Z,93543.38
2019-01-27T09:44:16.672Z,93548.34
2019-01-27T09:45:21.818Z,93549.59
2019-01-27T09:46:44.673Z,93554.25
2019-01-27T09:48:04.761Z,93549.34
2019-01-27T09:49:18.690Z,93542.49
2019-01-27T09:50:26.445Z,93538.29
2019-01-27T09:51:34.358Z,93539.23
2019-01-27T09:52:45.279Z,93532.89
2019-01-27T09:53:50.408Z,93533.58
2019-01-27T09:55:07.656Z,93539.80
2019-01-27T09:56:18.190Z,93540.52
2019-01-27T09:57:38.187Z,93538.43
2019-01-27T09:58:49.003Z,93540.13
2019-01-27T09:59:54.137Z,93543.89
2019-01-27T10:00:59.268Z,93536.19
2019-01-27T10:02:20.506Z,93541.53
2019-01-27T10:03:28.407Z,93540.58
2019-01-27T10:04:33.539Z,93535.73
2019-01-27T10:05:44.234Z,93535.34
2019-01-27T10:06:49.389Z,93538.27
2019-01-27T10:07:54.458Z,93537.83
2019-01-27T10:09:08.319Z,93535.00
2019-01-27T10:10:13.534Z,93531.09
2019-01-27T10:11:26.463Z,93537.34
2019-01-27T10:12:37.133Z,93535.60
2019-01-27T10:13:42.275Z,93537.02
2019-01-27T10:14:47.530Z,93534.16
2019-01-27T10:15:52.685Z,93534.48
2019-01-27T10:17:00.535Z,93530.52
2019-01-27T10:18:08.567Z,93526.19
2019-01-27T10:19:19.298Z,93524.63
2019-01-27T10:20:24.363Z,93519.57
2019-01-27T10:21:29.900Z,93515.42
2019-01-27T10:22:35.056Z,93517.42
2019-01-27T10:23:40.125Z,93519.41
2019-01-27T10:24:51.111Z,93513.05
2019-01-27T10:26:01.824Z,93511.72
2019-01-27T10:27:16.202Z,93510.36
2019-01-27T10:28:23.741Z,93510.33
2019-01-27T10:29:28.811Z,93500.75
2019-01-27T10:30:36.778Z,93503.48
2019-01-27T10:31:56.915Z,93493.39
2019-01-27T10:33:02.029Z,93483.09
2019-01-27T10:34:23.027Z,93479.86
2019-01-27T10:35:42.711Z,93470.70
2019-01-27T10:36:46.806Z,93467.84
2019-01-27T10:37:57.675Z,93460.54
2019-01-27T10:39:02.763Z,93463.61
2019-01-27T10:40:10.948Z,93454.07
2019-01-27T10:41:24.971Z,93452.02
2019-01-27T10:42:32.540Z,93450.94
2019-01-27T10:43:40.439Z,93449.19
2019-01-27T10:44:57.218Z,93452.07
2019-01-27T10:46:07.976Z,93445.17
2019-01-27T10:47:21.710Z,93439.84
2019-01-27T10:48:44.754Z,93439.22
2019-01-27T10:50:07.771Z,93438.92
2019-01-27T10:51:15.828Z,93439.37
2019-01-27T10:52:32.982Z,93438.51
2019-01-27T10:53:44.189Z,93431.42
2019-01-27T10:54:58.700Z,93431.76
2019-01-27T10:56:03.873Z,93428.92
2019-01-27T10:57:11.744Z,93427.20
2019-01-27T10:58:16.831Z,93430.33
2019-01-27T10:59:21.912Z,93423.22
2019-01-27T11:00:27.233Z,93419.59
2019-01-27T11:01:35.165Z,93417.08
2019-01-27T11:02:55.112Z,93421.66
2019-01-27T11:04:15.191Z,93425.84
2019-01-27T11:05:23.057Z,93418.11
2019-01-27T11:06:30.935Z,93423.66
2019-01-27T11:07:41.986Z,93413.39
2019-01-27T11:08:47.048Z,93409.48
2019-01-27T11:09:55.001Z,93411.30
2019-01-27T11:11:05.654Z,93408.84
2019-01-27T11:12:16.484Z,93401.33
2019-01-27T11:13:39.356Z,93396.39
2019-01-27T11:14:50.472Z,93394.44
2019-01-27T11:16:01.204Z,93394.53
2019-01-27T11:17:09.267Z,93398.78
2019-01-27T11:18:30.616Z,93395.02
2019-01-27T11:19:35.753Z,93395.85
2019-01-27T11:20:40.943Z,93392.59
2019-01-27T11:21:48.939Z,93387.88
2019-01-27T11:22:53.988Z,93382.23
2019-01-27T11:23:59.138Z,93376.27
2019-01-27T11:25:20.074Z,93375.05
2019-01-27T11:26:25.265Z,93371.87
2019-01-27T11:27:46.169Z,93373.89
2019-01-27T11:28:57.185Z,93379.62
2019-01-27T11:30:02.321Z,93378.23
2019-01-27T11:31:07.422Z,93366.98
2019-01-27T11:32:18.602Z,93361.42
2019-01-27T11:33:26.209Z,93357.83
2019-01-27T11:34:31.280Z,93352.13
2019-01-27T11:35:39.082Z,93355.06
2019-01-27T11:36:46.801Z,93342.06
2019-01-27T11:37:54.721Z,93343.36
2019-01-27T11:39:02.508Z,93347.14
2019-01-27T11:40:16.297Z,93341.58
2019-01-27T11:41:29.848Z,93347.22
2019-01-27T11:42:35.065Z,93348.86
2019-01-27T11:43:46.150Z,93350.97
2019-01-27T11:44:54.023Z,93354.33
2019-01-27T11:46:08.040Z,93360.20
2019-01-27T11:47:16.139Z,93357.67
2019-01-27T11:48:27.014Z,93356.05
2019-01-27T11:49:40.846Z,93355.06
2019-01-27T11:50:46.098Z,93351.77
2019-01-27T11:51:49.618Z,93342.77
2019-01-27T11:52:54.413Z,93345.56
2019-01-27T11:53:57.835Z,93340.75
2019-01-27T11:55:01.414Z,93338.80
2019-01-27T11:56:05.092Z,93337.40
2019-01-27T11:57:08.619Z,93327.78
2019-01-27T11:58:12.046Z,93332.02
2019-01-27T11:59:15.463Z,93329.17
2019-01-27T12:00:20.791Z,93323.62
2019-01-27T12:01:24.396Z,93320.85
2019-01-27T12:02:28.003Z,93320.84
2019-01-27T12:03:31.500Z,93318.33
2019-01-27T12:04:35.125Z,93313.75
2019-01-27T12:05:38.536Z,93319.95
2019-01-27T12:06:41.970Z,93308.68
2019-01-27T12:07:45.572Z,93308.77
2019-01-27T12:08:48.991Z,93311.38
2019-01-27T12:09:52.567Z,93310.55
2019-01-27T12:10:56.123Z,93310.80
2019-01-27T12:11:59.920Z,93304.66
2019-01-27T12:13:03.444Z,93302.80
2019-01-27T12:14:07.039Z,93305.25
2019-01-27T12:15:13.995Z,93293.72
2019-01-27T12:16:17.412Z,93298.05
2019-01-27T12:17:20.992Z,93293.32
2019-01-27T12:18:24.433Z,93290.70
2019-01-27T12:19:27.928Z,93286.55
2019-01-27T12:20:31.360Z,93289.87
2019-01-27T12:21:34.857Z,93281.64
2019-01-27T12:22:38.285Z,93282.20
2019-01-27T12:23:41.800Z,93283.27
2019-01-27T12:24:45.243Z,93281.78
2019-01-27T12:25:48.667Z,93280.89
2019-01-27T12:26:52.086Z,93277.30
2019-01-27T12:27:55.587Z,93280.41
2019-01-27T12:28:59.032Z,93274.75
2019-01-27T12:30:02.489Z,93272.14
2019-01-27T12:31:06.005Z,93273.52
2019-01-27T12:32:09.523Z,93271.55
2019-01-27T12:33:13.018Z,93268.94
2019-01-27T12:34:16.611Z,93263.53
2019-01-27T12:35:20.134Z,93264.27
2019-01-27T12:36:23.619Z,93264.27
2019-01-27T12:37:27.054Z,93262.55
2019-01-27T12:38:30.553Z,93263.61
2019-01-27T12:39:34.152Z,93263.36
2019-01-27T12:40:37.719Z,93259.93
2019-01-27T12:41:41.273Z,93260.59
2019-01-27T12:42:44.835Z,93264.13
2019-01-27T12:43:48.279Z,93263.61
2019-01-27T12:44:51.798Z,93269.33
2019-01-27T12:45:55.247Z,93266.89
2019-01-27T12:46:58.815Z,93269.58
2019-01-27T12:48:02.273Z,93262.47
2019-01-27T12:49:05.766Z,93257.31
2019-01-27T12:50:12.154Z,93260.00
2019-01-27T12:51:15.600Z,93255.66
2019-01-27T12:52:19.192Z,93253.36
2019-01-27T12:53:22.690Z,93247.00
2019-01-27T12:54:26.180Z,93249.47
2019-01-27T12:55:29.737Z,93250.20